Terminal Aerodrome Forecast
Issued by NWS Paducah, KY

Home | Current Version | Previous Version | Text Only | Print | Product List | Glossary On
Versions: 1 2 3 4 5 6 7 8 9 10 11 12 13 14 15 16 17 18 19 20 21 22 23 24
511
FTUS43 KPAH 252156 AAA
TAFEVV
TAF AMD
KEVV 252156Z 2522/2618 17010G17KT P6SM -SHRA BKN060
     FM260000 16008KT 6SM -SHRA SCT030 BKN090
     FM260900 19009KT P6SM SCT030 BKN070=

USA.gov is the U.S. government's official web portal to all federal, state and local government web resources and services.